sensor_id;sensor_type;location;lat;lon;timestamp;pressure;altitude;pressure_sealevel;temperature;humidity
41945;BME280;63122;52.424;13.458;2023-07-20T00:00:25;100436.41;;;18.01;100.00
41945;BME280;63122;52.424;13.458;2023-07-20T00:02:40;100439.25;;;17.99;100.00
41945;BME280;63122;52.424;13.458;2023-07-20T00:04:37;100439.53;;;18.04;100.00
41945;BME280;63122;52.424;13.458;2023-07-20T00:06:32;100445.06;;;18.09;100.00
41945;BME280;63122;52.424;13.458;2023-07-20T00:08:27;100440.75;;;18.08;100.00
41945;BME280;63122;52.424;13.458;2023-07-20T00:10:22;100435.41;;;18.15;100.00
41945;BME280;63122;52.424;13.458;2023-07-20T00:12:20;100442.78;;;18.20;100.00
41945;BME280;63122;52.424;13.458;2023-07-20T00:14:15;100442.78;;;18.13;100.00
41945;BME280;63122;52.424;13.458;2023-07-20T00:16:08;100433.75;;;18.07;100.00
41945;BME280;63122;52.424;13.458;2023-07-20T00:18:03;100444.84;;;18.11;100.00
41945;BME280;63122;52.424;13.458;2023-07-20T00:19:58;100439.53;;;18.04;100.00
41945;BME280;63122;52.424;13.458;2023-07-20T00:21:51;100441.34;;;17.90;100.00
41945;BME280;63122;52.424;13.458;2023-07-20T00:23:47;100444.84;;;17.77;100.00
41945;BME280;63122;52.424;13.458;2023-07-20T00:25:42;100442.97;;;17.71;100.00
41945;BME280;63122;52.424;13.458;2023-07-20T00:27:40;100440.94;;;17.66;100.00
41945;BME280;63122;52.424;13.458;2023-07-20T00:29:35;100432.69;;;17.68;100.00
41945;BME280;63122;52.424;13.458;2023-07-20T00:31:30;100435.19;;;17.69;100.00
41945;BME280;63122;52.424;13.458;2023-07-20T00:33:23;100438.03;;;17.68;100.00
41945;BME280;63122;52.424;13.458;2023-07-20T00:35:18;100435.38;;;17.75;100.00
41945;BME280;63122;52.424;13.458;2023-07-20T00:37:14;100435.38;;;17.81;100.00
41945;BME280;63122;52.424;13.458;2023-07-20T00:39:09;100436.81;;;17.77;100.00
41945;BME280;63122;52.424;13.458;2023-07-20T00:41:04;100438.88;;;17.82;100.00
41945;BME280;63122;52.424;13.458;2023-07-20T00:43:02;100431.47;;;17.84;100.00
41945;BME280;63122;52.424;13.458;2023-07-20T00:44:58;100438.25;;;17.87;100.00
41945;BME280;63122;52.424;13.458;2023-07-20T00:46:53;100439.28;;;17.92;100.00
41945;BME280;63122;52.424;13.458;2023-07-20T00:48:49;100442.56;;;17.94;100.00
41945;BME280;63122;52.424;13.458;2023-07-20T00:50:41;100438.47;;;17.98;100.00
41945;BME280;63122;52.424;13.458;2023-07-20T00:52:38;100440.72;;;17.95;100.00
41945;BME280;63122;52.424;13.458;2023-07-20T00:54:34;100437.63;;;17.98;100.00
41945;BME280;63122;52.424;13.458;2023-07-20T00:56:29;100433.94;;;17.99;100.00
41945;BME280;63122;52.424;13.458;2023-07-20T00:58:25;100430.22;;;18.00;100.00
41945;BME280;63122;52.424;13.458;2023-07-20T01:00:20;100436.25;;;18.02;100.00
41945;BME280;63122;52.424;13.458;2023-07-20T01:02:13;100431.06;;;18.01;100.00
41945;BME280;63122;52.424;13.458;2023-07-20T01:04:08;100434.75;;;17.99;100.00
41945;BME280;63122;52.424;13.458;2023-07-20T01:06:09;100431.72;;;18.03;100.00
41945;BME280;63122;52.424;13.458;2023-07-20T01:08:11;100432.31;;;17.91;100.00
41945;BME280;63122;52.424;13.458;2023-07-20T01:10:15;100437.84;;;17.83;100.00
41945;BME280;63122;52.424;13.458;2023-07-20T01:12:17;100435.78;;;17.65;100.00
41945;BME280;63122;52.424;13.458;2023-07-20T01:14:16;100439.28;;;17.65;100.00
41945;BME280;63122;52.424;13.458;2023-07-20T01:16:09;100442.56;;;17.61;100.00
41945;BME280;63122;52.424;13.458;2023-07-20T01:18:05;100441.31;;;17.56;100.00
41945;BME280;63122;52.424;13.458;2023-07-20T01:20:00;100445.19;;;17.54;100.00
41945;BME280;63122;52.424;13.458;2023-07-20T01:21:59;100447.44;;;17.37;100.00
41945;BME280;63122;52.424;13.458;2023-07-20T01:24:24;100450.69;;;17.19;100.00
41945;BME280;63122;52.424;13.458;2023-07-20T01:26:46;100451.25;;;17.14;100.00
41945;BME280;63122;52.424;13.458;2023-07-20T01:28:58;100454.56;;;17.23;100.00
41945;BME280;63122;52.424;13.458;2023-07-20T01:31:21;100449.88;;;17.32;100.00
41945;BME280;63122;52.424;13.458;2023-07-20T01:33:19;100447.84;;;17.34;100.00
41945;BME280;63122;52.424;13.458;2023-07-20T01:35:13;100448.06;;;17.39;100.00
41945;BME280;63122;52.424;13.458;2023-07-20T01:37:10;100448.69;;;17.48;100.00
41945;BME280;63122;52.424;13.458;2023-07-20T01:39:08;100456.09;;;17.52;100.00
41945;BME280;63122;52.424;13.458;2023-07-20T01:41:04;100447.25;;;17.52;100.00
41945;BME280;63122;52.424;13.458;2023-07-20T01:43:00;100446.84;;;17.48;100.00
41945;BME280;63122;52.424;13.458;2023-07-20T01:44:55;100448.47;;;17.42;100.00
41945;BME280;63122;52.424;13.458;2023-07-20T01:46:53;100443.56;;;17.46;100.00
41945;BME280;63122;52.424;13.458;2023-07-20T01:48:48;100440.09;;;17.52;100.00
41945;BME280;63122;52.424;13.458;2023-07-20T01:50:43;100441.72;;;17.53;100.00
41945;BME280;63122;52.424;13.458;2023-07-20T01:52:38;100445.41;;;17.46;100.00
41945;BME280;63122;52.424;13.458;2023-07-20T01:54:34;100437.19;;;17.40;100.00
41945;BME280;63122;52.424;13.458;2023-07-20T01:56:26;100436.78;;;17.37;100.00
41945;BME280;63122;52.424;13.458;2023-07-20T01:58:21;100438.41;;;17.38;100.00
41945;BME280;63122;52.424;13.458;2023-07-20T02:00:18;100436.78;;;17.44;100.00
41945;BME280;63122;52.424;13.458;2023-07-20T02:02:15;100436.78;;;17.37;100.00
41945;BME280;63122;52.424;13.458;2023-07-20T02:04:11;100440.25;;;17.31;100.00
41945;BME280;63122;52.424;13.458;2023-07-20T02:06:07;100434.72;;;17.32;100.00
41945;BME280;63122;52.424;13.458;2023-07-20T02:08:04;100443.75;;;17.38;100.00
41945;BME280;63122;52.424;13.458;2023-07-20T02:09:56;100434.31;;;17.42;100.00
41945;BME280;63122;52.424;13.458;2023-07-20T02:11:52;100428.81;;;17.50;100.00
41945;BME280;63122;52.424;13.458;2023-07-20T02:13:47;100440.50;;;17.49;100.00
41945;BME280;63122;52.424;13.458;2023-07-20T02:15:42;100437.59;;;17.44;100.00
41945;BME280;63122;52.424;13.458;2023-07-20T02:17:42;100435.75;;;17.45;100.00
41945;BME280;63122;52.424;13.458;2023-07-20T02:19:35;100433.53;;;17.48;100.00
41945;BME280;63122;52.424;13.458;2023-07-20T02:21:30;100430.25;;;17.46;100.00
41945;BME280;63122;52.424;13.458;2023-07-20T02:23:25;100436.97;;;17.42;100.00
41945;BME280;63122;52.424;13.458;2023-07-20T02:25:21;100437.38;;;17.39;100.00
41945;BME280;63122;52.424;13.458;2023-07-20T02:27:16;100433.91;;;17.38;100.00
41945;BME280;63122;52.424;13.458;2023-07-20T02:29:09;100432.47;;;17.36;100.00
41945;BME280;63122;52.424;13.458;2023-07-20T02:31:06;100432.47;;;17.36;100.00
41945;BME280;63122;52.424;13.458;2023-07-20T02:33:03;100428.75;;;17.30;100.00
41945;BME280;63122;52.424;13.458;2023-07-20T02:34:59;100428.13;;;17.21;100.00
41945;BME280;63122;52.424;13.458;2023-07-20T02:36:56;100423.84;;;17.20;100.00
41945;BME280;63122;52.424;13.458;2023-07-20T02:38:53;100432.44;;;17.22;100.00
41945;BME280;63122;52.424;13.458;2023-07-20T02:40:48;100433.66;;;17.20;100.00
41945;BME280;63122;52.424;13.458;2023-07-20T02:42:44;100430.78;;;17.15;100.00
41945;BME280;63122;52.424;13.458;2023-07-20T02:44:39;100438.75;;;17.08;100.00
41945;BME280;63122;52.424;13.458;2023-07-20T02:46:31;100438.47;;;16.96;100.00
41945;BME280;63122;52.424;13.458;2023-07-20T02:48:30;100446.88;;;16.93;100.00
41945;BME280;63122;52.424;13.458;2023-07-20T02:50:25;100447.47;;;16.95;100.00
41945;BME280;63122;52.424;13.458;2023-07-20T02:52:18;100454.47;;;16.96;100.00
41945;BME280;63122;52.424;13.458;2023-07-20T02:54:14;100446.28;;;16.97;100.00
41945;BME280;63122;52.424;13.458;2023-07-20T02:56:09;100452.63;;;16.96;100.00
41945;BME280;63122;52.424;13.458;2023-07-20T02:58:05;100456.63;;;16.79;100.00
41945;BME280;63122;52.424;13.458;2023-07-20T03:00:00;100455.84;;;16.78;100.00
41945;BME280;63122;52.424;13.458;2023-07-20T03:01:53;100462.94;;;16.71;100.00
41945;BME280;63122;52.424;13.458;2023-07-20T03:03:52;100462.16;;;16.70;100.00
41945;BME280;63122;52.424;13.458;2023-07-20T03:05:50;100463.38;;;16.75;100.00
41945;BME280;63122;52.424;13.458;2023-07-20T03:07:46;100478.69;;;16.66;100.00
41945;BME280;63122;52.424;13.458;2023-07-20T03:09:44;100477.81;;;16.52;100.00
41945;BME280;63122;52.424;13.458;2023-07-20T03:11:49;100476.91;;;16.38;100.00
41945;BME280;63122;52.424;13.458;2023-07-20T03:13:48;100476.09;;;16.44;100.00
41945;BME280;63122;52.424;13.458;2023-07-20T03:15:43;100480.41;;;16.45;100.00
41945;BME280;63122;52.424;13.458;2023-07-20T03:17:38;100476.50;;;16.41;100.00
41945;BME280;63122;52.424;13.458;2023-07-20T03:19:33;100479.16;;;16.41;100.00
41945;BME280;63122;52.424;13.458;2023-07-20T03:21:29;100474.69;;;16.41;100.00
41945;BME280;63122;52.424;13.458;2023-07-20T03:23:24;100472.88;;;16.49;100.00
41945;BME280;63122;52.424;13.458;2023-07-20T03:25:19;100479.06;;;16.56;100.00
41945;BME280;63122;52.424;13.458;2023-07-20T03:27:17;100472.28;;;16.53;100.00
41945;BME280;63122;52.424;13.458;2023-07-20T03:29:12;100482.03;;;16.39;100.00
41945;BME280;63122;52.424;13.458;2023-07-20T03:31:08;100483.88;;;16.39;100.00
41945;BME280;63122;52.424;13.458;2023-07-20T03:33:03;100484.53;;;16.48;100.00
41945;BME280;63122;52.424;13.458;2023-07-20T03:35:01;100484.78;;;16.53;100.00
41945;BME280;63122;52.424;13.458;2023-07-20T03:36:54;100473.72;;;16.49;100.00
41945;BME280;63122;52.424;13.458;2023-07-20T03:38:49;100476.31;;;16.43;100.00
41945;BME280;63122;52.424;13.458;2023-07-20T03:40:51;100476.31;;;16.43;100.00
41945;BME280;63122;52.424;13.458;2023-07-20T03:42:46;100477.97;;;16.44;100.00
41945;BME280;63122;52.424;13.458;2023-07-20T03:44:45;100482.44;;;16.36;100.00
41945;BME280;63122;52.424;13.458;2023-07-20T03:46:40;100480.97;;;16.34;100.00
41945;BME280;63122;52.424;13.458;2023-07-20T03:48:35;100480.00;;;16.41;100.00
41945;BME280;63122;52.424;13.458;2023-07-20T03:50:51;100481.25;;;16.46;100.00
41945;BME280;63122;52.424;13.458;2023-07-20T03:52:55;100485.72;;;16.38;100.00
41945;BME280;63122;52.424;13.458;2023-07-20T03:54:51;100478.94;;;16.36;100.00
41945;BME280;63122;52.424;13.458;2023-07-20T03:56:46;100480.16;;;16.33;100.00
41945;BME280;63122;52.424;13.458;2023-07-20T03:58:41;100483.56;;;16.27;100.00
41945;BME280;63122;52.424;13.458;2023-07-20T04:00:34;100489.53;;;16.29;100.00
41945;BME280;63122;52.424;13.458;2023-07-20T04:02:29;100488.88;;;16.20;100.00
41945;BME280;63122;52.424;13.458;2023-07-20T04:04:22;100495.84;;;16.21;100.00
41945;BME280;63122;52.424;13.458;2023-07-20T04:06:20;100491.97;;;16.02;100.00
41945;BME280;63122;52.424;13.458;2023-07-20T04:08:14;100497.91;;;16.04;100.00
41945;BME280;63122;52.424;13.458;2023-07-20T04:10:10;100484.84;;;16.03;100.00
41945;BME280;63122;52.424;13.458;2023-07-20T04:12:06;100491.63;;;16.05;100.00
41945;BME280;63122;52.424;13.458;2023-07-20T04:14:02;100496.63;;;15.93;100.00
41945;BME280;63122;52.424;13.458;2023-07-20T04:15:57;100490.97;;;16.03;100.00
41945;BME280;63122;52.424;13.458;2023-07-20T04:17:53;100493.06;;;16.08;100.00
41945;BME280;63122;52.424;13.458;2023-07-20T04:19:46;100495.56;;;16.16;100.00
41945;BME280;63122;52.424;13.458;2023-07-20T04:21:44;100493.53;;;16.18;100.00
41945;BME280;63122;52.424;13.458;2023-07-20T04:23:40;100493.13;;;16.15;100.00
41945;BME280;63122;52.424;13.458;2023-07-20T04:25:35;100495.66;;;16.01;100.00
41945;BME280;63122;52.424;13.458;2023-07-20T04:27:34;100504.09;;;16.05;100.00
41945;BME280;63122;52.424;13.458;2023-07-20T04:29:27;100500.72;;;15.96;100.00
41945;BME280;63122;52.424;13.458;2023-07-20T04:31:22;100500.22;;;16.07;100.00
41945;BME280;63122;52.424;13.458;2023-07-20T04:33:18;100504.63;;;16.22;100.00
41945;BME280;63122;52.424;13.458;2023-07-20T04:35:17;100505.19;;;16.17;100.00
41945;BME280;63122;52.424;13.458;2023-07-20T04:37:13;100502.00;;;16.00;100.00
41945;BME280;63122;52.424;13.458;2023-07-20T04:39:09;100506.81;;;15.90;100.00
41945;BME280;63122;52.424;13.458;2023-07-20T04:41:21;100504.75;;;15.70;100.00
41945;BME280;63122;52.424;13.458;2023-07-20T04:43:18;100517.94;;;15.78;100.00
41945;BME280;63122;52.424;13.458;2023-07-20T04:45:13;100511.97;;;15.76;100.00
41945;BME280;63122;52.424;13.458;2023-07-20T04:47:11;100514.53;;;15.84;100.00
41945;BME280;63122;52.424;13.458;2023-07-20T04:49:07;100509.94;;;15.93;100.00
41945;BME280;63122;52.424;13.458;2023-07-20T04:51:03;100506.66;;;15.91;100.00
41945;BME280;63122;52.424;13.458;2023-07-20T04:52:58;100508.53;;;15.97;100.00
41945;BME280;63122;52.424;13.458;2023-07-20T04:54:54;100507.75;;;16.04;100.00
41945;BME280;63122;52.424;13.458;2023-07-20T04:56:50;100503.91;;;16.06;100.00
41945;BME280;63122;52.424;13.458;2023-07-20T04:58:45;100506.81;;;16.11;100.00
41945;BME280;63122;52.424;13.458;2023-07-20T05:00:41;100507.69;;;16.19;100.00
41945;BME280;63122;52.424;13.458;2023-07-20T05:02:36;100502.41;;;16.25;100.00
41945;BME280;63122;52.424;13.458;2023-07-20T05:04:33;100507.09;;;16.23;100.00
41945;BME280;63122;52.424;13.458;2023-07-20T05:06:30;100509.16;;;16.28;100.00
41945;BME280;63122;52.424;13.458;2023-07-20T05:08:29;100506.31;;;16.30;100.00
41945;BME280;63122;52.424;13.458;2023-07-20T05:10:24;100510.44;;;16.32;100.00
41945;BME280;63122;52.424;13.458;2023-07-20T05:12:17;100506.31;;;16.30;100.00
41945;BME280;63122;52.424;13.458;2023-07-20T05:14:13;100513.69;;;16.27;100.00
41945;BME280;63122;52.424;13.458;2023-07-20T05:16:08;100515.50;;;16.27;100.00
41945;BME280;63122;52.424;13.458;2023-07-20T05:18:04;100518.81;;;16.29;100.00
41945;BME280;63122;52.424;13.458;2023-07-20T05:19:57;100516.84;;;16.16;100.00
41945;BME280;63122;52.424;13.458;2023-07-20T05:21:53;100520.13;;;16.11;100.00
41945;BME280;63122;52.424;13.458;2023-07-20T05:23:51;100514.00;;;16.18;100.00
41945;BME280;63122;52.424;13.458;2023-07-20T05:25:46;100521.59;;;16.21;100.00
41945;BME280;63122;52.424;13.458;2023-07-20T05:27:41;100511.75;;;16.15;100.00
41945;BME280;63122;52.424;13.458;2023-07-20T05:29:36;100520.16;;;16.18;100.00
41945;BME280;63122;52.424;13.458;2023-07-20T05:31:32;100524.50;;;16.26;100.00
41945;BME280;63122;52.424;13.458;2023-07-20T05:33:27;100524.56;;;16.33;100.00
41945;BME280;63122;52.424;13.458;2023-07-20T05:35:22;100520.22;;;16.25;100.00
41945;BME280;63122;52.424;13.458;2023-07-20T05:37:18;100522.28;;;16.30;100.00
41945;BME280;63122;52.424;13.458;2023-07-20T05:39:13;100525.97;;;16.29;100.00
41945;BME280;63122;52.424;13.458;2023-07-20T05:41:09;100520.41;;;16.23;100.00
41945;BME280;63122;52.424;13.458;2023-07-20T05:43:04;100520.59;;;16.22;100.00
41945;BME280;63122;52.424;13.458;2023-07-20T05:44:57;100518.94;;;16.21;100.00
41945;BME280;63122;52.424;13.458;2023-07-20T05:46:53;100521.16;;;16.17;100.00
41945;BME280;63122;52.424;13.458;2023-07-20T05:48:49;100520.53;;;16.15;100.00
41945;BME280;63122;52.424;13.458;2023-07-20T05:50:45;100516.56;;;16.04;100.00
41945;BME280;63122;52.424;13.458;2023-07-20T05:52:40;100526.13;;;16.20;100.00
41945;BME280;63122;52.424;13.458;2023-07-20T05:54:38;100526.38;;;16.25;100.00
41945;BME280;63122;52.424;13.458;2023-07-20T05:56:33;100518.81;;;16.29;100.00
41945;BME280;63122;52.424;13.458;2023-07-20T05:58:26;100529.28;;;16.31;100.00
41945;BME280;63122;52.424;13.458;2023-07-20T06:00:22;100525.13;;;16.28;100.00
41945;BME280;63122;52.424;13.458;2023-07-20T06:02:18;100530.53;;;16.35;100.00
41945;BME280;63122;52.424;13.458;2023-07-20T06:04:14;100536.09;;;16.40;100.00
41945;BME280;63122;52.424;13.458;2023-07-20T06:06:09;100534.34;;;16.25;100.00
41945;BME280;63122;52.424;13.458;2023-07-20T06:08:04;100539.78;;;16.17;100.00
41945;BME280;63122;52.424;13.458;2023-07-20T06:10:00;100542.97;;;16.06;100.00
41945;BME280;63122;52.424;13.458;2023-07-20T06:11:55;100536.63;;;16.07;100.00
41945;BME280;63122;52.424;13.458;2023-07-20T06:13:51;100545.63;;;16.06;100.00
41945;BME280;63122;52.424;13.458;2023-07-20T06:15:46;100538.91;;;16.10;100.00
41945;BME280;63122;52.424;13.458;2023-07-20T06:17:41;100542.28;;;16.19;100.00
41945;BME280;63122;52.424;13.458;2023-07-20T06:19:37;100545.56;;;16.21;100.00
41945;BME280;63122;52.424;13.458;2023-07-20T06:21:32;100541.00;;;16.15;100.00
41945;BME280;63122;52.424;13.458;2023-07-20T06:23:27;100546.41;;;16.21;100.00
41945;BME280;63122;52.424;13.458;2023-07-20T06:25:25;100551.81;;;16.35;100.00
41945;BME280;63122;52.424;13.458;2023-07-20T06:27:20;100549.22;;;16.41;100.00
41945;BME280;63122;52.424;13.458;2023-07-20T06:29:16;100542.94;;;16.49;100.00
41945;BME280;63122;52.424;13.458;2023-07-20T06:31:11;100541.94;;;16.57;100.00
41945;BME280;63122;52.424;13.458;2023-07-20T06:33:06;100539.16;;;16.65;100.00
41945;BME280;63122;52.424;13.458;2023-07-20T06:35:02;100541.81;;;16.72;100.00
41945;BME280;63122;52.424;13.458;2023-07-20T06:36:57;100547.25;;;16.86;100.00
41945;BME280;63122;52.424;13.458;2023-07-20T06:38:53;100548.09;;;16.93;100.00
41945;BME280;63122;52.424;13.458;2023-07-20T06:40:54;100547.41;;;16.77;100.00
41945;BME280;63122;52.424;13.458;2023-07-20T06:43:09;100547.59;;;16.76;100.00
41945;BME280;63122;52.424;13.458;2023-07-20T06:45:08;100550.69;;;16.79;100.00
41945;BME280;63122;52.424;13.458;2023-07-20T06:47:01;100549.69;;;16.80;100.00
41945;BME280;63122;52.424;13.458;2023-07-20T06:48:57;100554.81;;;16.82;100.00
41945;BME280;63122;52.424;13.458;2023-07-20T06:50:55;100562.38;;;16.78;100.00
41945;BME280;63122;52.424;13.458;2023-07-20T06:52:51;100553.47;;;16.64;100.00
41945;BME280;63122;52.424;13.458;2023-07-20T06:54:50;100559.81;;;16.63;100.00
41945;BME280;63122;52.424;13.458;2023-07-20T06:56:48;100558.75;;;16.58;100.00
41945;BME280;63122;52.424;13.458;2023-07-20T06:58:46;100568.16;;;16.53;100.00
41945;BME280;63122;52.424;13.458;2023-07-20T07:00:39;100563.25;;;16.57;100.00
41945;BME280;63122;52.424;13.458;2023-07-20T07:02:34;100556.91;;;16.58;100.00
41945;BME280;63122;52.424;13.458;2023-07-20T07:04:30;100563.28;;;16.64;100.00
41945;BME280;63122;52.424;13.458;2023-07-20T07:06:25;100562.31;;;16.72;100.00
41945;BME280;63122;52.424;13.458;2023-07-20T07:08:21;100552.13;;;16.82;100.00
41945;BME280;63122;52.424;13.458;2023-07-20T07:10:17;100560.34;;;16.80;100.00
41945;BME280;63122;52.424;13.458;2023-07-20T07:12:13;100559.56;;;16.87;100.00
41945;BME280;63122;52.424;13.458;2023-07-20T07:14:08;100556.94;;;16.93;100.00
41945;BME280;63122;52.424;13.458;2023-07-20T07:16:04;100567.84;;;16.98;100.00
41945;BME280;63122;52.424;13.458;2023-07-20T07:18:01;100551.78;;;16.92;100.00
41945;BME280;63122;52.424;13.458;2023-07-20T07:19:54;100560.19;;;16.89;100.00
41945;BME280;63122;52.424;13.458;2023-07-20T07:21:50;100558.63;;;17.01;100.00
41945;BME280;63122;52.424;13.458;2023-07-20T07:23:51;100559.50;;;17.15;100.00
41945;BME280;63122;52.424;13.458;2023-07-20T07:25:50;100560.25;;;17.37;100.00
41945;BME280;63122;52.424;13.458;2023-07-20T07:27:48;100566.00;;;17.48;100.00
41945;BME280;63122;52.424;13.458;2023-07-20T07:29:44;100570.50;;;17.40;100.00
41945;BME280;63122;52.424;13.458;2023-07-20T07:31:41;100564.47;;;17.18;100.00
41945;BME280;63122;52.424;13.458;2023-07-20T07:33:34;100566.94;;;17.20;100.00
41945;BME280;63122;52.424;13.458;2023-07-20T07:35:30;100574.78;;;17.35;100.00
41945;BME280;63122;52.424;13.458;2023-07-20T07:37:25;100569.50;;;17.48;100.00
41945;BME280;63122;52.424;13.458;2023-07-20T07:39:27;100562.56;;;17.61;100.00
41945;BME280;63122;52.424;13.458;2023-07-20T07:41:27;100568.13;;;17.59;100.00
41945;BME280;63122;52.424;13.458;2023-07-20T07:43:22;100561.53;;;17.62;100.00
41945;BME280;63122;52.424;13.458;2023-07-20T07:45:18;100568.97;;;17.66;100.00
41945;BME280;63122;52.424;13.458;2023-07-20T07:47:11;100562.97;;;17.58;100.00
41945;BME280;63122;52.424;13.458;2023-07-20T07:49:07;100556.84;;;17.70;100.00
41945;BME280;63122;52.424;13.458;2023-07-20T07:51:03;100563.84;;;17.85;100.00
41945;BME280;63122;52.424;13.458;2023-07-20T07:52:59;100563.06;;;17.91;100.00
41945;BME280;63122;52.424;13.458;2023-07-20T07:54:55;100559.16;;;18.01;100.00
41945;BME280;63122;52.424;13.458;2023-07-20T07:56:51;100570.69;;;18.01;100.00
41945;BME280;63122;52.424;13.458;2023-07-20T07:58:49;100567.19;;;18.14;100.00
41945;BME280;63122;52.424;13.458;2023-07-20T08:00:44;100566.81;;;18.17;100.00
41945;BME280;63122;52.424;13.458;2023-07-20T08:02:41;100560.22;;;18.13;100.00
41945;BME280;63122;52.424;13.458;2023-07-20T08:04:34;100563.94;;;18.25;100.00
41945;BME280;63122;52.424;13.458;2023-07-20T08:06:31;100577.72;;;18.29;100.00
41945;BME280;63122;52.424;13.458;2023-07-20T08:08:27;100570.50;;;18.23;100.00
41945;BME280;63122;52.424;13.458;2023-07-20T08:10:24;100570.69;;;18.28;100.00
41945;BME280;63122;52.424;13.458;2023-07-20T08:12:17;100570.91;;;18.40;100.00
41945;BME280;63122;52.424;13.458;2023-07-20T08:14:16;100559.41;;;18.46;100.00
41945;BME280;63122;52.424;13.458;2023-07-20T08:16:11;100571.72;;;18.61;100.00
41945;BME280;63122;52.424;13.458;2023-07-20T08:18:06;100568.84;;;18.62;100.00
41945;BME280;63122;52.424;13.458;2023-07-20T08:20:03;100567.22;;;18.54;100.00
41945;BME280;63122;52.424;13.458;2023-07-20T08:21:55;100576.25;;;18.60;100.00
41945;BME280;63122;52.424;13.458;2023-07-20T08:23:51;100578.69;;;18.62;100.00
41945;BME280;63122;52.424;13.458;2023-07-20T08:25:46;100583.03;;;18.42;100.00
41945;BME280;63122;52.424;13.458;2023-07-20T08:27:41;100578.31;;;18.31;100.00
41945;BME280;63122;52.424;13.458;2023-07-20T08:29:41;100587.75;;;18.34;100.00
41945;BME280;63122;52.424;13.458;2023-07-20T08:31:33;100590.63;;;18.25;100.00
41945;BME280;63122;52.424;13.458;2023-07-20T08:33:29;100593.91;;;18.14;100.00
41945;BME280;63122;52.424;13.458;2023-07-20T08:35:25;100588.97;;;18.11;100.00
41945;BME280;63122;52.424;13.458;2023-07-20T08:37:20;100597.41;;;18.15;100.00
41945;BME280;63122;52.424;13.458;2023-07-20T08:39:16;100589.59;;;18.20;100.00
41945;BME280;63122;52.424;13.458;2023-07-20T08:41:14;100599.84;;;18.23;100.00
41945;BME280;63122;52.424;13.458;2023-07-20T08:43:10;100599.44;;;18.26;100.00
41945;BME280;63122;52.424;13.458;2023-07-20T08:45:08;100597.63;;;18.33;100.00
41945;BME280;63122;52.424;13.458;2023-07-20T08:47:06;100589.22;;;18.36;100.00
41945;BME280;63122;52.424;13.458;2023-07-20T08:49:01;100586.94;;;18.33;100.00
41945;BME280;63122;52.424;13.458;2023-07-20T08:50:57;100600.47;;;18.11;100.00
41945;BME280;63122;52.424;13.458;2023-07-20T08:52:53;100592.47;;;18.25;100.00
41945;BME280;63122;52.424;13.458;2023-07-20T08:54:49;100586.34;;;18.31;100.00
41945;BME280;63122;52.424;13.458;2023-07-20T08:56:45;100598.84;;;18.24;100.00
41945;BME280;63122;52.424;13.458;2023-07-20T08:58:43;100597.19;;;18.23;100.00
41945;BME280;63122;52.424;13.458;2023-07-20T09:00:41;100600.06;;;18.28;100.00
41945;BME280;63122;52.424;13.458;2023-07-20T09:02:39;100592.06;;;18.41;100.00
41945;BME280;63122;52.424;13.458;2023-07-20T09:04:35;100599.69;;;18.45;100.00
41945;BME280;63122;52.424;13.458;2023-07-20T09:06:31;100605.84;;;18.45;100.00
41945;BME280;63122;52.424;13.458;2023-07-20T09:08:27;100600.91;;;18.35;100.00
41945;BME280;63122;52.424;13.458;2023-07-20T09:10:23;100609.94;;;18.41;100.00
41945;BME280;63122;52.424;13.458;2023-07-20T09:12:18;100602.56;;;18.43;100.00
41945;BME280;63122;52.424;13.458;2023-07-20T09:14:14;100592.88;;;18.49;100.00
41945;BME280;63122;52.424;13.458;2023-07-20T09:16:13;100592.28;;;18.40;100.00
41945;BME280;63122;52.424;13.458;2023-07-20T09:18:09;100595.56;;;18.42;100.00
41945;BME280;63122;52.424;13.458;2023-07-20T09:20:06;100596.59;;;18.61;100.00
41945;BME280;63122;52.424;13.458;2023-07-20T09:22:05;100607.06;;;18.69;100.00
41945;BME280;63122;52.424;13.458;2023-07-20T09:24:01;100589.81;;;18.65;100.00
41945;BME280;63122;52.424;13.458;2023-07-20T09:25:57;100602.34;;;18.38;100.00
41945;BME280;63122;52.424;13.458;2023-07-20T09:27:52;100596.38;;;18.22;100.00
41945;BME280;63122;52.424;13.458;2023-07-20T09:29:48;100593.91;;;18.41;100.00
41945;BME280;63122;52.424;13.458;2023-07-20T09:31:58;100599.28;;;18.61;100.00
41945;BME280;63122;52.424;13.458;2023-07-20T09:33:55;100590.84;;;18.71;100.00
41945;BME280;63122;52.424;13.458;2023-07-20T09:35:53;100590.59;;;18.86;100.00
41945;BME280;63122;52.424;13.458;2023-07-20T09:37:58;100593.66;;;18.96;100.00
41945;BME280;63122;52.424;13.458;2023-07-20T09:39:57;100588.47;;;19.22;100.00
41945;BME280;63122;52.424;13.458;2023-07-20T09:41:53;100592.56;;;19.31;100.00
41945;BME280;63122;52.424;13.458;2023-07-20T09:44:10;100588.22;;;19.37;100.00
41945;BME280;63122;52.424;13.458;2023-07-20T09:46:08;100586.78;;;19.34;100.00
41945;BME280;63122;52.424;13.458;2023-07-20T09:48:26;100590.94;;;19.30;100.00
41945;BME280;63122;52.424;13.458;2023-07-20T09:50:24;100587.75;;;19.47;100.00
41945;BME280;63122;52.424;13.458;2023-07-20T09:52:19;100616.22;;;19.34;98.40
41945;BME280;63122;52.424;13.458;2023-07-20T09:54:17;100592.00;;;19.16;99.56